createdAt,value
2019-03-20T00:00:12.494Z,11.57
2019-03-20T00:00:51.232Z,10.73
2019-03-20T00:01:27.339Z,10.97
2019-03-20T00:02:03.340Z,11.37
2019-03-20T00:02:39.230Z,10.00
2019-03-20T00:03:15.214Z,11.10
2019-03-20T00:03:51.338Z,10.40
2019-03-20T00:04:27.362Z,10.93
2019-03-20T00:05:03.380Z,10.37
2019-03-20T00:05:39.296Z,10.87
2019-03-20T00:06:15.341Z,9.77
2019-03-20T00:06:51.401Z,9.50
2019-03-20T00:07:27.287Z,10.00
2019-03-20T00:08:03.270Z,10.33
2019-03-20T00:08:39.179Z,9.30
2019-03-20T00:09:15.412Z,9.93
2019-03-20T00:09:51.268Z,10.23
2019-03-20T00:10:27.596Z,10.00
2019-03-20T00:11:03.621Z,9.67
2019-03-20T00:11:39.537Z,11.67
2019-03-20T00:12:15.484Z,9.97
2019-03-20T00:12:51.375Z,9.03
2019-03-20T00:13:27.317Z,10.87
2019-03-20T00:14:03.199Z,9.00
2019-03-20T00:14:39.127Z,9.10
2019-03-20T00:15:15.252Z,9.73
2019-03-20T00:15:51.166Z,9.97
2019-03-20T00:16:27.123Z,9.30
2019-03-20T00:17:04.092Z,9.27
2019-03-20T00:17:40.078Z,10.20
2019-03-20T00:18:16.093Z,9.80
2019-03-20T00:18:51.972Z,9.07
2019-03-20T00:19:28.051Z,10.10
2019-03-20T00:20:03.938Z,11.90
2019-03-20T00:20:39.807Z,9.63
2019-03-20T00:21:16.080Z,9.80
2019-03-20T00:21:52.008Z,8.60
2019-03-20T00:22:27.972Z,9.77
2019-03-20T00:23:04.027Z,10.10
2019-03-20T00:23:40.005Z,9.27
2019-03-20T00:24:15.951Z,8.93
2019-03-20T00:24:51.995Z,9.27
2019-03-20T00:25:27.910Z,9.03
2019-03-20T00:26:03.967Z,8.80
2019-03-20T00:26:39.827Z,9.00
2019-03-20T00:27:15.708Z,9.07
2019-03-20T00:27:51.585Z,11.07
2019-03-20T00:28:27.462Z,9.73
2019-03-20T00:29:03.379Z,9.80
2019-03-20T00:29:39.247Z,10.63
2019-03-20T00:30:15.306Z,10.30
2019-03-20T00:30:51.205Z,8.60
2019-03-20T00:31:27.074Z,9.47
2019-03-20T00:32:02.945Z,9.17
2019-03-20T00:32:38.823Z,10.63
2019-03-20T00:33:14.719Z,9.00
2019-03-20T00:33:50.696Z,9.40
2019-03-20T00:34:26.687Z,8.97
2019-03-20T00:35:02.632Z,9.40
2019-03-20T00:35:38.566Z,13.20
2019-03-20T00:36:14.611Z,8.70
2019-03-20T00:36:50.527Z,8.97
2019-03-20T00:37:26.399Z,9.30
2019-03-20T00:38:02.274Z,11.40
2019-03-20T00:38:38.268Z,10.70
2019-03-20T00:39:14.132Z,10.03
2019-03-20T00:39:50.139Z,9.27
2019-03-20T00:40:26.013Z,9.73
2019-03-20T00:41:01.951Z,9.87
2019-03-20T00:41:37.952Z,9.93
2019-03-20T00:42:13.870Z,8.57
2019-03-20T00:42:49.779Z,9.17
2019-03-20T00:43:25.657Z,9.50
2019-03-20T00:44:01.856Z,9.90
2019-03-20T00:44:37.701Z,9.70
2019-03-20T00:45:14.064Z,10.03
2019-03-20T00:45:49.962Z,9.63
2019-03-20T00:46:25.858Z,10.30
2019-03-20T00:47:01.863Z,8.77
2019-03-20T00:47:37.846Z,10.80
2019-03-20T00:48:13.840Z,9.23
2019-03-20T00:48:49.775Z,9.83
2019-03-20T00:49:25.662Z,9.43
2019-03-20T00:50:01.529Z,9.43
2019-03-20T00:50:37.463Z,9.97
2019-03-20T00:51:13.500Z,9.17
2019-03-20T00:51:49.398Z,10.00
2019-03-20T00:52:25.274Z,8.53
2019-03-20T00:53:01.107Z,9.97
2019-03-20T00:53:36.986Z,10.50
2019-03-20T00:54:12.895Z,11.00
2019-03-20T00:54:48.879Z,9.00
2019-03-20T00:55:24.970Z,8.83
2019-03-20T00:56:00.991Z,10.10
2019-03-20T00:56:36.896Z,10.27
2019-03-20T00:57:12.860Z,9.57
2019-03-20T00:57:49.262Z,10.20
2019-03-20T00:58:25.231Z,9.87
2019-03-20T00:59:01.107Z,10.10
2019-03-20T00:59:37.090Z,8.30
2019-03-20T01:00:15.580Z,11.27
2019-03-20T01:00:51.543Z,10.27
2019-03-20T01:01:27.408Z,10.00
2019-03-20T01:02:03.316Z,9.93
2019-03-20T01:02:39.231Z,9.93
2019-03-20T01:03:15.170Z,9.63
2019-03-20T01:03:51.099Z,11.67
2019-03-20T01:04:27.007Z,9.27
2019-03-20T01:05:12.203Z,10.03
2019-03-20T01:05:40.727Z,11.03
2019-03-20T01:06:16.622Z,9.17
2019-03-20T01:06:52.560Z,11.30
2019-03-20T01:07:28.449Z,9.17
2019-03-20T01:08:04.359Z,9.83
2019-03-20T01:08:40.392Z,10.90
2019-03-20T01:09:16.291Z,10.27
2019-03-20T01:09:52.338Z,9.70
2019-03-20T01:10:28.225Z,10.43
2019-03-20T01:11:04.083Z,9.10
2019-03-20T01:11:39.999Z,10.20
2019-03-20T01:12:17.728Z,10.37
2019-03-20T01:12:53.658Z,10.93
2019-03-20T01:13:29.669Z,9.70
2019-03-20T01:14:05.526Z,9.07
2019-03-20T01:14:41.439Z,12.13
2019-03-20T01:15:17.814Z,10.50
2019-03-20T01:15:53.794Z,9.50
2019-03-20T01:16:29.634Z,10.00
2019-03-20T01:17:05.538Z,11.30
2019-03-20T01:17:41.490Z,11.43
2019-03-20T01:18:17.373Z,10.70
2019-03-20T01:18:53.203Z,11.83
2019-03-20T01:19:29.067Z,9.50
2019-03-20T01:20:04.994Z,11.50
2019-03-20T01:20:40.868Z,10.40
2019-03-20T01:21:16.925Z,10.60
2019-03-20T01:21:52.988Z,10.83
2019-03-20T01:22:28.894Z,11.83
2019-03-20T01:23:04.933Z,10.67
2019-03-20T01:23:40.839Z,9.13
2019-03-20T01:24:16.765Z,11.63
2019-03-20T01:24:52.630Z,10.23
2019-03-20T01:25:28.459Z,10.73
2019-03-20T01:26:04.353Z,10.37
2019-03-20T01:26:40.412Z,10.07
2019-03-20T01:27:16.275Z,11.40
2019-03-20T01:27:52.281Z,11.17
2019-03-20T01:28:28.160Z,10.13
2019-03-20T01:29:04.027Z,12.23
2019-03-20T01:29:39.974Z,10.70
2019-03-20T01:30:32.158Z,11.53
2019-03-20T01:31:08.020Z,11.90
2019-03-20T01:31:43.912Z,11.07
2019-03-20T01:32:19.825Z,12.27
2019-03-20T01:32:55.668Z,11.90
2019-03-20T01:33:31.593Z,10.90
2019-03-20T01:34:07.462Z,9.90
2019-03-20T01:34:43.337Z,10.17
2019-03-20T01:35:23.814Z,9.93
2019-03-20T01:35:56.942Z,9.30
2019-03-20T01:36:32.865Z,10.77
2019-03-20T01:37:08.722Z,10.10
2019-03-20T01:37:44.708Z,9.73
2019-03-20T01:38:20.611Z,7.77
2019-03-20T01:38:56.413Z,9.87
2019-03-20T01:39:32.302Z,9.17
2019-03-20T01:40:08.160Z,9.07
2019-03-20T01:40:44.095Z,6.30
2019-03-20T01:41:20.082Z,8.40
2019-03-20T01:41:55.958Z,9.17
2019-03-20T01:42:31.781Z,9.10
2019-03-20T01:43:08.057Z,9.27
2019-03-20T01:43:43.932Z,9.73
2019-03-20T01:44:19.803Z,7.70
2019-03-20T01:44:55.838Z,7.57
2019-03-20T01:45:31.715Z,11.40
2019-03-20T01:46:07.715Z,7.30
2019-03-20T01:46:43.623Z,8.80
2019-03-20T01:47:19.495Z,9.17
2019-03-20T01:47:55.394Z,8.67
2019-03-20T01:48:31.397Z,9.00
2019-03-20T01:49:07.210Z,9.10
2019-03-20T01:49:43.197Z,8.97
2019-03-20T01:50:19.128Z,7.77
2019-03-20T01:50:55.041Z,7.37
2019-03-20T01:51:30.934Z,8.87
2019-03-20T01:52:06.838Z,7.20
2019-03-20T01:52:42.737Z,6.87
2019-03-20T01:53:18.601Z,7.60
2019-03-20T01:53:54.492Z,7.60
2019-03-20T01:54:30.420Z,7.87
2019-03-20T01:55:06.415Z,8.53
2019-03-20T01:55:42.260Z,6.60
2019-03-20T01:56:18.201Z,7.63
2019-03-20T01:56:54.096Z,7.90
2019-03-20T01:57:29.951Z,6.63
2019-03-20T01:58:05.838Z,6.63
2019-03-20T01:58:41.731Z,7.50
2019-03-20T01:59:17.605Z,6.90
2019-03-20T01:59:53.506Z,7.80
2019-03-20T02:00:29.384Z,8.10
2019-03-20T02:01:05.255Z,8.60
2019-03-20T02:01:41.114Z,6.00
2019-03-20T02:02:17.088Z,7.60
2019-03-20T02:02:53.028Z,7.63
2019-03-20T02:03:28.948Z,6.10
2019-03-20T02:04:04.926Z,7.50
2019-03-20T02:04:40.750Z,8.30
2019-03-20T02:05:16.784Z,7.37
2019-03-20T02:05:52.748Z,7.60
2019-03-20T02:06:28.638Z,5.90
2019-03-20T02:07:04.475Z,7.40
2019-03-20T02:07:40.350Z,7.27
2019-03-20T02:08:16.309Z,6.60
2019-03-20T02:08:52.207Z,6.87
2019-03-20T02:09:28.072Z,6.73
2019-03-20T02:10:04.002Z,7.43
2019-03-20T02:10:40.018Z,5.17
2019-03-20T02:11:16.058Z,5.57
2019-03-20T02:11:51.926Z,5.00
2019-03-20T02:12:27.938Z,4.50
2019-03-20T02:13:03.990Z,4.90
2019-03-20T02:13:40.173Z,5.80
2019-03-20T02:14:16.079Z,4.53
2019-03-20T02:14:52.263Z,4.83
2019-03-20T02:15:38.147Z,5.23
2019-03-20T02:16:06.012Z,3.70
2019-03-20T02:16:42.107Z,4.73
2019-03-20T02:17:18.129Z,5.70
2019-03-20T02:17:55.952Z,5.73
2019-03-20T02:18:35.335Z,4.40
2019-03-20T02:19:11.432Z,4.10
2019-03-20T02:19:47.331Z,3.80
2019-03-20T02:20:24.628Z,5.10
2019-03-20T02:21:01.356Z,5.63
2019-03-20T02:21:40.402Z,5.00
2019-03-20T02:22:16.489Z,5.70
2019-03-20T02:22:53.905Z,5.00
2019-03-20T02:23:29.794Z,5.50
2019-03-20T02:24:05.857Z,5.80
2019-03-20T02:24:41.877Z,5.50
2019-03-20T02:25:17.947Z,5.70
2019-03-20T02:25:53.826Z,7.37
2019-03-20T02:26:29.643Z,5.63
2019-03-20T02:27:05.671Z,7.73
2019-03-20T02:27:41.579Z,7.10
2019-03-20T02:28:17.594Z,6.30
2019-03-20T02:28:53.516Z,6.30
2019-03-20T02:29:29.373Z,6.40
2019-03-20T02:30:05.616Z,6.70
2019-03-20T02:30:41.723Z,7.20
2019-03-20T02:31:17.663Z,6.10
2019-03-20T02:31:53.658Z,6.87
2019-03-20T02:32:29.572Z,6.47
2019-03-20T02:33:05.566Z,5.63
2019-03-20T02:33:41.512Z,5.47
2019-03-20T02:34:17.399Z,6.20
2019-03-20T02:34:53.441Z,6.87
2019-03-20T02:35:29.360Z,7.37
2019-03-20T02:36:05.247Z,7.97
2019-03-20T02:36:41.125Z,6.83
2019-03-20T02:37:17.013Z,6.90
2019-03-20T02:37:55.699Z,7.37
2019-03-20T02:38:31.584Z,7.13
2019-03-20T02:39:09.032Z,6.33
2019-03-20T02:39:44.862Z,7.80
2019-03-20T02:40:20.795Z,6.57
2019-03-20T02:40:56.633Z,7.40
2019-03-20T02:41:32.525Z,7.33
2019-03-20T02:42:08.457Z,7.17
2019-03-20T02:42:44.341Z,7.70
2019-03-20T02:43:20.212Z,6.20
2019-03-20T02:43:56.384Z,5.90
2019-03-20T02:44:32.515Z,5.97
2019-03-20T02:45:10.031Z,6.30
2019-03-20T02:45:46.233Z,6.17
2019-03-20T02:46:22.161Z,6.80
2019-03-20T02:46:58.191Z,6.00
2019-03-20T02:47:34.169Z,6.40
2019-03-20T02:48:10.007Z,5.40
2019-03-20T02:48:45.831Z,6.63
2019-03-20T02:49:21.737Z,6.60
2019-03-20T02:49:57.612Z,7.43
2019-03-20T02:50:33.609Z,6.83
2019-03-20T02:51:09.573Z,6.20
2019-03-20T02:51:45.455Z,5.43
2019-03-20T02:52:21.257Z,6.57
2019-03-20T02:52:57.173Z,7.23
2019-03-20T02:53:33.031Z,7.80
2019-03-20T02:54:09.068Z,7.27
2019-03-20T02:54:44.943Z,6.53
2019-03-20T02:55:20.877Z,6.63
2019-03-20T02:55:56.724Z,7.23
2019-03-20T02:56:32.622Z,6.87
2019-03-20T02:57:08.699Z,5.93
2019-03-20T02:57:44.596Z,6.83
2019-03-20T02:58:20.480Z,6.60
2019-03-20T02:58:56.379Z,6.43
2019-03-20T02:59:32.271Z,5.57
2019-03-20T03:00:10.307Z,6.87
2019-03-20T03:00:46.433Z,7.03
2019-03-20T03:01:22.467Z,6.77
2019-03-20T03:01:58.511Z,6.30
2019-03-20T03:02:34.726Z,7.23
2019-03-20T03:03:10.713Z,5.67
2019-03-20T03:03:46.661Z,6.63
2019-03-20T03:04:22.609Z,6.97
2019-03-20T03:04:58.496Z,6.70
2019-03-20T03:05:34.583Z,5.83
2019-03-20T03:06:10.452Z,5.93
2019-03-20T03:06:46.321Z,6.70
2019-03-20T03:07:22.203Z,6.70
2019-03-20T03:07:58.117Z,6.70
2019-03-20T03:08:34.125Z,6.27
2019-03-20T03:09:10.771Z,6.43
2019-03-20T03:09:46.623Z,6.43
2019-03-20T03:10:22.566Z,6.27
2019-03-20T03:10:58.427Z,6.40
2019-03-20T03:11:34.298Z,6.53
2019-03-20T03:12:10.161Z,5.90
2019-03-20T03:12:46.022Z,6.17
2019-03-20T03:13:21.938Z,6.50
2019-03-20T03:13:57.808Z,5.93
2019-03-20T03:14:33.878Z,5.40
2019-03-20T03:15:10.032Z,5.97
2019-03-20T03:15:45.905Z,6.47
2019-03-20T03:16:22.094Z,5.90
2019-03-20T03:16:58.216Z,6.00
2019-03-20T03:17:34.181Z,5.93
2019-03-20T03:18:10.119Z,6.37
2019-03-20T03:18:45.960Z,5.50
2019-03-20T03:19:21.913Z,6.30
2019-03-20T03:19:57.882Z,6.10
2019-03-20T03:20:33.899Z,5.27
2019-03-20T03:21:09.737Z,6.13
2019-03-20T03:21:45.629Z,5.57
2019-03-20T03:22:21.562Z,6.80
2019-03-20T03:22:57.512Z,5.93
2019-03-20T03:23:33.536Z,5.83
2019-03-20T03:24:09.438Z,6.07
2019-03-20T03:24:45.383Z,4.97
2019-03-20T03:25:21.232Z,5.93
2019-03-20T03:25:57.219Z,5.93
2019-03-20T03:26:33.221Z,5.80
2019-03-20T03:27:09.121Z,6.27
2019-03-20T03:27:45.186Z,6.57
2019-03-20T03:28:21.151Z,6.07
2019-03-20T03:28:57.050Z,7.20
2019-03-20T03:29:32.901Z,5.83
2019-03-20T03:30:09.402Z,6.40
2019-03-20T03:30:45.390Z,5.10
2019-03-20T03:31:21.319Z,6.03
2019-03-20T03:31:57.211Z,5.63
2019-03-20T03:32:33.243Z,4.90
2019-03-20T03:33:09.105Z,5.47
2019-03-20T03:33:45.004Z,5.47
2019-03-20T03:34:20.859Z,5.37
2019-03-20T03:34:56.742Z,5.97
2019-03-20T03:35:32.751Z,5.40
2019-03-20T03:36:20.638Z,7.50
2019-03-20T03:36:46.347Z,5.60
2019-03-20T03:37:22.257Z,5.47
2019-03-20T03:37:58.244Z,5.43
2019-03-20T03:38:34.281Z,6.57
2019-03-20T03:39:10.607Z,5.20
2019-03-20T03:39:46.506Z,5.90
2019-03-20T03:40:22.418Z,6.60
2019-03-20T03:40:58.292Z,6.20
2019-03-20T03:41:34.213Z,4.90
2019-03-20T03:42:10.143Z,6.10
2019-03-20T03:42:46.009Z,6.00
2019-03-20T03:43:24.273Z,5.30
2019-03-20T03:43:59.581Z,6.17
2019-03-20T03:44:35.445Z,6.10
2019-03-20T03:45:12.642Z,5.57
2019-03-20T03:45:48.623Z,5.70
2019-03-20T03:46:24.595Z,5.00
2019-03-20T03:47:00.428Z,5.60
2019-03-20T03:47:36.486Z,5.33
2019-03-20T03:48:12.441Z,5.47
2019-03-20T03:48:48.350Z,4.90
2019-03-20T03:49:24.193Z,4.80
2019-03-20T03:50:00.532Z,5.23
2019-03-20T03:50:36.530Z,5.20
2019-03-20T03:51:12.485Z,4.00
2019-03-20T03:51:48.388Z,5.30
2019-03-20T03:52:24.613Z,4.50
2019-03-20T03:53:00.492Z,5.00
2019-03-20T03:53:36.383Z,4.83
2019-03-20T03:54:12.277Z,4.77
2019-03-20T03:54:48.170Z,4.57
2019-03-20T03:55:24.012Z,5.77
2019-03-20T03:55:59.878Z,5.33
2019-03-20T03:56:35.769Z,4.90
2019-03-20T03:57:11.963Z,5.27
2019-03-20T03:57:48.218Z,4.90
2019-03-20T03:58:24.223Z,4.63
2019-03-20T03:59:00.144Z,5.33
2019-03-20T03:59:36.104Z,5.07
2019-03-20T04:00:13.454Z,4.10
2019-03-20T04:00:49.357Z,5.37
2019-03-20T04:01:25.214Z,4.90
2019-03-20T04:02:01.166Z,5.40
2019-03-20T04:02:37.039Z,5.37
2019-03-20T04:03:13.050Z,5.30
2019-03-20T04:03:49.294Z,5.30
2019-03-20T04:04:25.457Z,5.60
2019-03-20T04:05:01.478Z,5.40
2019-03-20T04:05:37.530Z,5.70
2019-03-20T04:06:13.580Z,6.27
2019-03-20T04:06:49.503Z,5.50
2019-03-20T04:07:25.463Z,5.90
2019-03-20T04:08:01.335Z,6.03
2019-03-20T04:08:37.268Z,5.13
2019-03-20T04:09:13.166Z,5.13
2019-03-20T04:09:49.170Z,5.50
2019-03-20T04:10:25.046Z,5.67
2019-03-20T04:11:01.048Z,5.40
2019-03-20T04:11:36.997Z,5.87
2019-03-20T04:12:13.104Z,5.10
2019-03-20T04:12:49.153Z,5.40
2019-03-20T04:13:25.395Z,5.00
2019-03-20T04:14:01.513Z,5.13
2019-03-20T04:14:37.529Z,6.70
2019-03-20T04:15:14.142Z,5.17
2019-03-20T04:15:50.310Z,5.10
2019-03-20T04:16:26.224Z,5.67
2019-03-20T04:17:02.097Z,4.60
2019-03-20T04:17:38.036Z,4.70
2019-03-20T04:18:13.969Z,4.60
2019-03-20T04:18:49.805Z,5.90
2019-03-20T04:19:25.652Z,5.03
2019-03-20T04:20:01.553Z,5.10
2019-03-20T04:20:37.560Z,4.60
2019-03-20T04:21:13.375Z,4.73
2019-03-20T04:21:49.264Z,4.73
2019-03-20T04:22:25.292Z,5.77
2019-03-20T04:23:01.252Z,5.60
2019-03-20T04:23:37.140Z,5.03
2019-03-20T04:24:13.016Z,4.83
2019-03-20T04:24:48.903Z,4.85
2019-03-20T04:25:24.741Z,4.60
2019-03-20T04:26:00.626Z,5.33
2019-03-20T04:26:36.508Z,5.13
2019-03-20T04:27:12.492Z,5.77
2019-03-20T04:27:48.450Z,5.47
2019-03-20T04:28:24.323Z,5.23
2019-03-20T04:29:00.235Z,4.80
2019-03-20T04:29:36.146Z,5.87
2019-03-20T04:30:12.589Z,5.50
2019-03-20T04:30:48.625Z,5.60
2019-03-20T04:31:24.498Z,5.30
2019-03-20T04:32:00.350Z,5.73
2019-03-20T04:32:36.256Z,4.13
2019-03-20T04:33:12.117Z,5.00
2019-03-20T04:33:47.986Z,5.90
2019-03-20T04:34:23.895Z,5.77
2019-03-20T04:34:59.851Z,5.70
2019-03-20T04:35:35.688Z,5.80
2019-03-20T04:36:11.592Z,5.30
2019-03-20T04:36:48.344Z,6.83
2019-03-20T04:37:24.296Z,7.00
2019-03-20T04:38:00.195Z,6.90
2019-03-20T04:38:36.037Z,5.40
2019-03-20T04:39:12.030Z,6.10
2019-03-20T04:39:47.919Z,4.70
2019-03-20T04:40:24.054Z,6.83
2019-03-20T04:40:59.925Z,5.33
2019-03-20T04:41:35.970Z,5.70
2019-03-20T04:42:11.892Z,5.37
2019-03-20T04:42:47.736Z,5.47
2019-03-20T04:43:23.631Z,4.87
2019-03-20T04:43:59.579Z,4.90
2019-03-20T04:44:35.725Z,5.40
2019-03-20T04:45:12.799Z,5.53
2019-03-20T04:45:48.767Z,5.40
2019-03-20T04:46:24.663Z,6.60
2019-03-20T04:47:00.454Z,5.20
2019-03-20T04:47:36.324Z,5.70
2019-03-20T04:48:12.272Z,5.93
2019-03-20T04:48:48.242Z,6.00
2019-03-20T04:49:24.224Z,6.13
2019-03-20T04:50:00.093Z,6.10
2019-03-20T04:50:35.967Z,5.33
2019-03-20T04:51:11.913Z,5.47
2019-03-20T04:51:47.786Z,5.43
2019-03-20T04:52:23.744Z,6.33
2019-03-20T04:52:59.674Z,5.70
2019-03-20T04:53:35.553Z,6.53
2019-03-20T04:54:11.459Z,5.90
2019-03-20T04:54:47.260Z,5.20
2019-03-20T04:55:23.126Z,5.60
2019-03-20T04:55:59.036Z,7.50
2019-03-20T04:56:34.910Z,5.97
2019-03-20T04:57:10.899Z,6.07
2019-03-20T04:57:46.751Z,6.63
2019-03-20T04:58:22.738Z,4.90
2019-03-20T04:58:58.619Z,6.93
2019-03-20T04:59:34.529Z,5.27
2019-03-20T05:00:12.736Z,5.80
2019-03-20T05:00:48.623Z,6.30
2019-03-20T05:01:24.520Z,6.20
2019-03-20T05:02:00.540Z,7.33
2019-03-20T05:02:36.429Z,6.47
2019-03-20T05:03:12.261Z,7.57
2019-03-20T05:03:48.099Z,5.70
2019-03-20T05:04:24.134Z,8.07
2019-03-20T05:05:00.052Z,7.63
2019-03-20T05:05:35.921Z,7.60
2019-03-20T05:06:11.811Z,6.00
2019-03-20T05:06:57.897Z,7.40
2019-03-20T05:07:25.347Z,6.43
2019-03-20T05:08:01.203Z,5.47
2019-03-20T05:08:37.079Z,5.70
2019-03-20T05:09:12.933Z,5.90
2019-03-20T05:09:48.859Z,5.50
2019-03-20T05:10:24.742Z,5.63
2019-03-20T05:11:00.603Z,8.17
2019-03-20T05:11:36.548Z,5.93
2019-03-20T05:12:12.432Z,5.60
2019-03-20T05:12:48.404Z,5.17
2019-03-20T05:13:24.251Z,7.30
2019-03-20T05:14:00.120Z,6.07
2019-03-20T05:14:36.065Z,6.17
2019-03-20T05:15:12.218Z,6.23
2019-03-20T05:15:48.079Z,6.60
2019-03-20T05:16:23.971Z,8.93
2019-03-20T05:16:59.862Z,6.97
2019-03-20T05:17:35.742Z,7.10
2019-03-20T05:18:11.616Z,7.00
2019-03-20T05:18:47.490Z,7.47
2019-03-20T05:19:23.382Z,6.20
2019-03-20T05:19:59.279Z,8.03
2019-03-20T05:20:35.186Z,5.90
2019-03-20T05:21:11.052Z,8.17
2019-03-20T05:21:47.079Z,7.33
2019-03-20T05:22:22.992Z,6.27
2019-03-20T05:22:58.862Z,6.63
2019-03-20T05:23:34.745Z,7.77
2019-03-20T05:24:10.704Z,8.00
2019-03-20T05:24:46.676Z,8.10
2019-03-20T05:25:22.647Z,8.63
2019-03-20T05:25:58.530Z,7.97
2019-03-20T05:26:34.394Z,7.77
2019-03-20T05:27:10.272Z,7.00
2019-03-20T05:27:46.100Z,7.50
2019-03-20T05:28:22.099Z,7.20
2019-03-20T05:28:58.001Z,6.10
2019-03-20T05:29:33.884Z,7.30
2019-03-20T05:30:10.284Z,9.43
2019-03-20T05:30:46.158Z,7.07
2019-03-20T05:31:22.031Z,6.50
2019-03-20T05:31:58.024Z,7.83
2019-03-20T05:32:33.913Z,9.60
2019-03-20T05:33:09.770Z,7.27
2019-03-20T05:33:45.642Z,8.90
2019-03-20T05:34:21.666Z,7.93
2019-03-20T05:34:57.534Z,7.20
2019-03-20T05:35:33.400Z,7.70
2019-03-20T05:36:09.238Z,8.53
2019-03-20T05:36:45.128Z,7.77
2019-03-20T05:37:20.960Z,6.20
2019-03-20T05:37:56.820Z,6.30
2019-03-20T05:38:32.658Z,9.10
2019-03-20T05:39:09.894Z,8.90
2019-03-20T05:39:45.815Z,7.13
2019-03-20T05:40:21.701Z,6.30
2019-03-20T05:40:57.752Z,7.23
2019-03-20T05:41:33.623Z,6.77
2019-03-20T05:42:09.497Z,6.87
2019-03-20T05:42:45.453Z,7.43
2019-03-20T05:43:21.287Z,6.90
2019-03-20T05:43:57.155Z,6.70
2019-03-20T05:44:33.005Z,6.07
2019-03-20T05:45:09.936Z,7.03
2019-03-20T05:45:45.856Z,6.40
2019-03-20T05:46:21.717Z,6.80
2019-03-20T05:46:57.608Z,4.67
2019-03-20T05:47:33.501Z,6.50
2019-03-20T05:48:09.353Z,6.07
2019-03-20T05:48:45.234Z,5.57
2019-03-20T05:49:21.126Z,5.87
2019-03-20T05:49:57.013Z,5.80
2019-03-20T05:50:32.877Z,5.40
2019-03-20T05:51:08.878Z,5.00
2019-03-20T05:51:44.753Z,6.00
2019-03-20T05:52:20.637Z,5.80
2019-03-20T05:52:56.493Z,4.80
2019-03-20T05:53:32.430Z,6.23
2019-03-20T05:54:08.411Z,4.60
2019-03-20T05:54:44.284Z,7.70
2019-03-20T05:55:20.175Z,4.70
2019-03-20T05:55:56.086Z,6.20
2019-03-20T05:56:32.079Z,5.50
2019-03-20T05:57:08.088Z,6.50
2019-03-20T05:57:43.953Z,6.23
2019-03-20T05:58:19.825Z,5.80
2019-03-20T05:58:55.831Z,5.97
2019-03-20T05:59:31.681Z,6.63
2019-03-20T06:00:11.371Z,5.83
2019-03-20T06:00:47.217Z,5.57
2019-03-20T06:01:23.207Z,5.33
2019-03-20T06:01:59.068Z,5.43
2019-03-20T06:02:34.955Z,5.37
2019-03-20T06:03:10.819Z,6.00
2019-03-20T06:03:46.866Z,5.20
2019-03-20T06:04:22.811Z,5.13
2019-03-20T06:04:58.875Z,6.03
2019-03-20T06:05:34.760Z,5.53
2019-03-20T06:06:10.582Z,6.40
2019-03-20T06:06:46.444Z,5.80
2019-03-20T06:07:22.308Z,6.33
2019-03-20T06:07:58.178Z,5.80
2019-03-20T06:08:34.143Z,4.93
2019-03-20T06:09:10.343Z,5.00
2019-03-20T06:09:46.165Z,5.57
2019-03-20T06:10:22.058Z,5.60
2019-03-20T06:10:57.931Z,5.30
2019-03-20T06:11:33.788Z,5.80
2019-03-20T06:12:09.623Z,4.27
2019-03-20T06:12:45.515Z,5.67
2019-03-20T06:13:21.329Z,5.97
2019-03-20T06:13:57.321Z,5.07
2019-03-20T06:14:33.342Z,5.77
2019-03-20T06:15:09.657Z,5.43
2019-03-20T06:15:45.495Z,3.80
2019-03-20T06:16:21.327Z,5.47
2019-03-20T06:16:57.302Z,4.83
2019-03-20T06:17:33.206Z,4.10
2019-03-20T06:18:09.106Z,6.03
2019-03-20T06:18:44.992Z,5.17
2019-03-20T06:19:20.902Z,5.23
2019-03-20T06:19:56.794Z,5.57
2019-03-20T06:20:33.823Z,4.50
2019-03-20T06:21:09.964Z,5.00
2019-03-20T06:21:45.834Z,5.90
2019-03-20T06:22:22.654Z,4.43
2019-03-20T06:22:58.620Z,5.60
2019-03-20T06:23:34.517Z,6.10
2019-03-20T06:24:10.451Z,5.10
2019-03-20T06:24:46.409Z,6.13
2019-03-20T06:25:22.375Z,5.80
2019-03-20T06:25:58.243Z,4.97
2019-03-20T06:26:34.102Z,5.07
2019-03-20T06:27:09.959Z,5.70
2019-03-20T06:27:45.867Z,5.33
2019-03-20T06:28:21.708Z,5.23
2019-03-20T06:28:57.664Z,4.77
2019-03-20T06:29:33.533Z,5.23
2019-03-20T06:30:11.097Z,6.00
2019-03-20T06:30:46.988Z,6.13
2019-03-20T06:31:22.925Z,6.57
2019-03-20T06:31:58.811Z,5.33
2019-03-20T06:32:34.673Z,5.53
2019-03-20T06:33:10.651Z,5.77
2019-03-20T06:33:46.602Z,5.17
2019-03-20T06:34:22.444Z,6.40
2019-03-20T06:34:58.345Z,6.40
2019-03-20T06:35:34.286Z,5.70
2019-03-20T06:36:10.134Z,5.83
2019-03-20T06:36:46.093Z,6.37
2019-03-20T06:37:31.982Z,4.90
2019-03-20T06:37:59.764Z,6.07
2019-03-20T06:38:35.623Z,4.50
2019-03-20T06:39:11.489Z,5.33
2019-03-20T06:39:47.400Z,5.67
2019-03-20T06:40:23.269Z,6.27
2019-03-20T06:40:59.141Z,5.67
2019-03-20T06:41:35.037Z,6.07
2019-03-20T06:42:10.947Z,5.70
2019-03-20T06:42:46.899Z,5.63
2019-03-20T06:43:22.749Z,4.90
2019-03-20T06:43:58.713Z,6.60
2019-03-20T06:44:34.545Z,6.87
2019-03-20T06:45:11.242Z,6.13
2019-03-20T06:45:47.236Z,5.73
2019-03-20T06:46:23.099Z,5.43
2019-03-20T06:46:59.090Z,5.83
2019-03-20T06:47:34.982Z,6.60
2019-03-20T06:48:10.844Z,7.07
2019-03-20T06:48:46.729Z,6.07
2019-03-20T06:49:22.644Z,5.77
2019-03-20T06:49:58.504Z,6.50
2019-03-20T06:50:34.367Z,5.60
2019-03-20T06:51:10.428Z,6.30
2019-03-20T06:51:46.334Z,6.43
2019-03-20T06:52:22.209Z,6.40
2019-03-20T06:52:58.050Z,6.20
2019-03-20T06:53:33.874Z,5.97
2019-03-20T06:54:09.695Z,6.17
2019-03-20T06:54:45.530Z,6.10
2019-03-20T06:55:21.509Z,4.80
2019-03-20T06:55:57.352Z,5.83
2019-03-20T06:56:33.233Z,5.17
2019-03-20T06:57:09.095Z,5.67
2019-03-20T06:57:45.094Z,5.83
2019-03-20T06:58:20.927Z,5.60
2019-03-20T06:59:34.784Z,5.87
2019-03-20T07:00:47.748Z,5.83
2019-03-20T07:01:29.458Z,5.17
2019-03-20T07:02:05.866Z,5.27
2019-03-20T07:02:44.595Z,5.07
2019-03-20T07:03:30.282Z,5.23
2019-03-20T07:04:14.926Z,4.90
2019-03-20T07:05:00.726Z,6.47
2019-03-20T07:06:02.773Z,5.53
2019-03-20T07:07:02.909Z,6.00
2019-03-20T07:07:44.271Z,5.00
2019-03-20T07:08:18.403Z,5.80
2019-03-20T07:08:58.126Z,4.83
2019-03-20T07:10:04.015Z,4.70
2019-03-20T07:11:02.307Z,4.97
2019-03-20T07:11:41.552Z,5.00
2019-03-20T07:12:17.543Z,6.13
2019-03-20T07:12:53.421Z,6.07
2019-03-20T07:13:29.255Z,6.47
2019-03-20T07:14:05.116Z,5.17
2019-03-20T07:14:41.081Z,4.43
2019-03-20T07:15:17.035Z,4.50
2019-03-20T07:15:52.877Z,4.43
2019-03-20T07:16:28.720Z,5.37
2019-03-20T07:17:04.778Z,5.73
2019-03-20T07:17:40.750Z,6.57
2019-03-20T07:18:16.612Z,6.13
2019-03-20T07:18:52.522Z,5.83
2019-03-20T07:19:28.499Z,5.67
2019-03-20T07:20:04.564Z,5.27
2019-03-20T07:20:40.452Z,5.90
2019-03-20T07:21:18.653Z,6.50
2019-03-20T07:21:54.001Z,6.27
2019-03-20T07:22:29.999Z,6.43
2019-03-20T07:23:05.864Z,6.90
2019-03-20T07:23:41.712Z,5.37
2019-03-20T07:24:17.583Z,6.20
2019-03-20T07:24:53.390Z,6.20
2019-03-20T07:25:29.185Z,6.43
2019-03-20T07:26:05.232Z,7.30
2019-03-20T07:26:41.802Z,7.47
2019-03-20T07:27:17.777Z,6.67
2019-03-20T07:27:53.619Z,5.90
2019-03-20T07:28:29.506Z,8.20
2019-03-20T07:29:05.418Z,7.13
2019-03-20T07:29:41.894Z,6.70
2019-03-20T07:30:17.921Z,6.83
2019-03-20T07:30:53.829Z,6.63
2019-03-20T07:31:29.703Z,7.00
2019-03-20T07:32:05.690Z,6.80
2019-03-20T07:32:41.520Z,7.00
2019-03-20T07:33:17.395Z,5.60
2019-03-20T07:33:53.429Z,6.40
2019-03-20T07:34:29.435Z,7.23
2019-03-20T07:35:05.460Z,7.77
2019-03-20T07:35:41.481Z,6.97
2019-03-20T07:36:17.330Z,7.10
2019-03-20T07:36:53.197Z,6.93
2019-03-20T07:37:29.044Z,6.40
2019-03-20T07:38:04.885Z,7.23
2019-03-20T07:38:40.724Z,7.23
2019-03-20T07:39:16.702Z,7.13
2019-03-20T07:39:52.601Z,6.67
2019-03-20T07:40:28.468Z,6.60
2019-03-20T07:41:04.488Z,7.40
2019-03-20T07:41:40.355Z,7.33
2019-03-20T07:42:16.205Z,7.60
2019-03-20T07:42:52.055Z,6.17
2019-03-20T07:43:27.906Z,6.53
2019-03-20T07:44:03.774Z,6.57
2019-03-20T07:44:39.731Z,7.57
2019-03-20T07:45:15.620Z,7.13
2019-03-20T07:45:51.461Z,8.10
2019-03-20T07:46:27.489Z,6.93
2019-03-20T07:47:03.293Z,7.50
2019-03-20T07:47:39.165Z,7.03
2019-03-20T07:48:22.127Z,7.90
2019-03-20T07:48:52.755Z,7.00
2019-03-20T07:49:28.610Z,7.80
2019-03-20T07:50:04.445Z,7.73
2019-03-20T07:50:40.279Z,7.70
2019-03-20T07:51:16.118Z,7.47
2019-03-20T07:51:51.982Z,7.10
2019-03-20T07:52:27.878Z,7.87
2019-03-20T07:53:03.763Z,7.47
2019-03-20T07:53:39.609Z,6.40
2019-03-20T07:54:15.574Z,6.80
2019-03-20T07:54:51.466Z,7.60
2019-03-20T07:55:27.318Z,7.53
2019-03-20T07:56:03.195Z,7.27
2019-03-20T07:56:39.171Z,7.23
2019-03-20T07:57:15.032Z,6.13
2019-03-20T07:57:52.072Z,7.93
2019-03-20T07:58:27.969Z,8.43
2019-03-20T07:59:03.783Z,8.60
2019-03-20T07:59:39.603Z,8.33
2019-03-20T08:00:15.984Z,7.20
2019-03-20T08:00:51.970Z,8.63
2019-03-20T08:01:27.882Z,8.13